DLH6RF EDDM-EGBB
Flight info
| Callsign | DLH6RF |
|---|---|
| Flight time | N/A |
| Altitude | 38000 |
| Route | INPUD3Q INPUD Y102 ALIBU DCT MASEK DCT ARPEG DCT GALSO Q63 ERING L179 LAM L610 HEMEL |
| Aircraft | A319/M-SDE3FGHIRWY/LB1 |
Departure
| Time | 2026-04-30 14:28 |
|---|---|
| Airport | Munich Airport (EDDM) |
Arrival
| Time | N/A |
|---|---|
| Airport | Birmingham Airport (EGBB) |
| Time | Latitude | Longitude | Altitude | Speed | Heading |
|---|---|---|---|---|---|
| 2026-04-30 13:46 | 48.35619 | 11.79709 | 1486 ft | 0 kts | 83° |
| 2026-04-30 14:11 | 48.35618 | 11.79694 | 1481 ft | 4 kts | 83° |
| 2026-04-30 14:11 | 48.35615 | 11.79654 | 1476 ft | 4 kts | 83° |
| 2026-04-30 14:12 | 48.35612 | 11.79621 | 1477 ft | 4 kts | 81° |
| 2026-04-30 14:12 | 48.35603 | 11.79585 | 1478 ft | 4 kts | 43° |
| 2026-04-30 14:12 | 48.35581 | 11.79568 | 1478 ft | 4 kts | 355° |
| 2026-04-30 14:12 | 48.35565 | 11.79571 | 1474 ft | 3 kts | 353° |
| 2026-04-30 14:13 | 48.35561 | 11.79571 | 1475 ft | 0 kts | 353° |
| 2026-04-30 14:18 | 48.35562 | 11.79571 | 1475 ft | 1 kts | 353° |
| 2026-04-30 14:18 | 48.35635 | 11.79558 | 1485 ft | 9 kts | 353° |
| 2026-04-30 14:19 | 48.35798 | 11.79530 | 1479 ft | 14 kts | 353° |
| 2026-04-30 14:19 | 48.35904 | 11.79512 | 1474 ft | 17 kts | 353° |
| 2026-04-30 14:19 | 48.36016 | 11.79492 | 1480 ft | 16 kts | 353° |
| 2026-04-30 14:20 | 48.36098 | 11.79429 | 1480 ft | 14 kts | 285° |
| 2026-04-30 14:20 | 48.36091 | 11.79285 | 1481 ft | 14 kts | 263° |
| 2026-04-30 14:20 | 48.36068 | 11.78999 | 1485 ft | 12 kts | 263° |
| 2026-04-30 14:21 | 48.36058 | 11.78870 | 1485 ft | 13 kts | 263° |
| 2026-04-30 14:21 | 48.36048 | 11.78733 | 1479 ft | 13 kts | 264° |
| 2026-04-30 14:21 | 48.36026 | 11.78444 | 1485 ft | 14 kts | 263° |
| 2026-04-30 14:22 | 48.36014 | 11.78291 | 1485 ft | 15 kts | 263° |
| 2026-04-30 14:22 | 48.35990 | 11.77972 | 1476 ft | 16 kts | 263° |
| 2026-04-30 14:22 | 48.35977 | 11.77808 | 1485 ft | 15 kts | 263° |
| 2026-04-30 14:23 | 48.36022 | 11.77666 | 1485 ft | 9 kts | 353° |
| 2026-04-30 14:23 | 48.36163 | 11.77736 | 1470 ft | 12 kts | 53° |
| 2026-04-30 14:24 | 48.36257 | 11.77926 | 1480 ft | 0 kts | 53° |
| 2026-04-30 14:26 | 48.36267 | 11.77948 | 1478 ft | 7 kts | 53° |
| 2026-04-30 14:26 | 48.36341 | 11.78082 | 1485 ft | 9 kts | 37° |
| 2026-04-30 14:27 | 48.36383 | 11.78150 | 1484 ft | 10 kts | 77° |
| 2026-04-30 14:27 | 48.36393 | 11.78283 | 1485 ft | 25 kts | 83° |
| 2026-04-30 14:27 | 48.36445 | 11.78961 | 1486 ft | 102 kts | 83° |
| 2026-04-30 14:28 | 48.36636 | 11.81638 | 2608 ft | 130 kts | 84° |
| 2026-04-30 14:28 | 48.36734 | 11.83059 | 3140 ft | 149 kts | 84° |
| 2026-04-30 14:28 | 48.36865 | 11.84716 | 3685 ft | 171 kts | 82° |
| 2026-04-30 14:28 | 48.37395 | 11.86427 | 4177 ft | 201 kts | 46° |
| 2026-04-30 14:29 | 48.40380 | 11.87317 | 5692 ft | 237 kts | 0° |
| 2026-04-30 14:29 | 48.43129 | 11.84378 | 7525 ft | 262 kts | 309° |
| 2026-04-30 14:30 | 48.47653 | 11.78886 | 10041 ft | 291 kts | 337° |
| 2026-04-30 14:31 | 48.51455 | 11.76017 | 11275 ft | 327 kts | 337° |
| 2026-04-30 14:31 | 48.55637 | 11.72858 | 12880 ft | 341 kts | 336° |
| 2026-04-30 14:31 | 48.57769 | 11.71235 | 13803 ft | 345 kts | 336° |
| 2026-04-30 14:32 | 48.62101 | 11.67953 | 15453 ft | 351 kts | 337° |
| 2026-04-30 14:32 | 48.64302 | 11.66330 | 16248 ft | 353 kts | 338° |
| 2026-04-30 14:32 | 48.66527 | 11.64705 | 17034 ft | 356 kts | 338° |
| 2026-04-30 14:33 | 48.68776 | 11.63069 | 17785 ft | 360 kts | 338° |
| 2026-04-30 14:33 | 48.73325 | 11.59749 | 19217 ft | 366 kts | 338° |
| 2026-04-30 14:33 | 48.75625 | 11.58063 | 19877 ft | 369 kts | 339° |
| 2026-04-30 14:34 | 48.77951 | 11.56353 | 20545 ft | 372 kts | 339° |
| 2026-04-30 14:34 | 48.80292 | 11.54625 | 21198 ft | 376 kts | 339° |
| 2026-04-30 14:34 | 48.82621 | 11.52904 | 21840 ft | 379 kts | 339° |
| 2026-04-30 14:34 | 48.85029 | 11.51125 | 22497 ft | 382 kts | 339° |
| 2026-04-30 14:35 | 48.89857 | 11.47558 | 23754 ft | 388 kts | 339° |
| 2026-04-30 14:35 | 48.92279 | 11.45764 | 24282 ft | 391 kts | 339° |
| 2026-04-30 14:35 | 48.94729 | 11.43947 | 24791 ft | 394 kts | 339° |
| 2026-04-30 14:36 | 48.97202 | 11.42108 | 25287 ft | 397 kts | 339° |
| 2026-04-30 14:36 | 48.99705 | 11.40246 | 25780 ft | 400 kts | 340° |
| 2026-04-30 14:36 | 49.02186 | 11.38398 | 26263 ft | 402 kts | 340° |
| 2026-04-30 14:36 | 49.04733 | 11.36500 | 26739 ft | 405 kts | 340° |
| 2026-04-30 14:37 | 49.07280 | 11.34599 | 27207 ft | 408 kts | 340° |
| 2026-04-30 14:37 | 49.09834 | 11.32692 | 27663 ft | 411 kts | 340° |
| 2026-04-30 14:37 | 49.12409 | 11.30770 | 28119 ft | 414 kts | 340° |
| 2026-04-30 14:37 | 49.14984 | 11.28847 | 28575 ft | 417 kts | 340° |
| 2026-04-30 14:38 | 49.17605 | 11.26884 | 29024 ft | 420 kts | 340° |
| 2026-04-30 14:38 | 49.20235 | 11.24910 | 29461 ft | 423 kts | 340° |
| 2026-04-30 14:38 | 49.22886 | 11.22921 | 29881 ft | 426 kts | 340° |
| 2026-04-30 14:38 | 49.25585 | 11.20891 | 30303 ft | 429 kts | 340° |
| 2026-04-30 14:39 | 49.28242 | 11.18891 | 30648 ft | 432 kts | 340° |
| 2026-04-30 14:39 | 49.30936 | 11.16862 | 30992 ft | 434 kts | 340° |
| 2026-04-30 14:39 | 49.33651 | 11.14812 | 31333 ft | 436 kts | 340° |
| 2026-04-30 14:40 | 49.39136 | 11.10663 | 32043 ft | 439 kts | 340° |
| 2026-04-30 14:40 | 49.41860 | 11.08593 | 32529 ft | 437 kts | 340° |
| 2026-04-30 14:40 | 49.44569 | 11.06530 | 33023 ft | 436 kts | 340° |
| 2026-04-30 14:40 | 49.47291 | 11.04460 | 33527 ft | 434 kts | 340° |
| 2026-04-30 14:41 | 49.49999 | 11.02401 | 34020 ft | 432 kts | 340° |
| 2026-04-30 14:41 | 49.52692 | 11.00346 | 34507 ft | 430 kts | 340° |
| 2026-04-30 14:41 | 49.55375 | 10.98295 | 34943 ft | 429 kts | 340° |
| 2026-04-30 14:41 | 49.58018 | 10.96274 | 35385 ft | 427 kts | 339° |
| 2026-04-30 14:42 | 49.60670 | 10.94248 | 35813 ft | 425 kts | 339° |
| 2026-04-30 14:42 | 49.63326 | 10.92218 | 36231 ft | 424 kts | 339° |
| 2026-04-30 14:42 | 49.65970 | 10.90194 | 36633 ft | 422 kts | 339° |
| 2026-04-30 14:42 | 49.68595 | 10.88180 | 37019 ft | 421 kts | 339° |
| 2026-04-30 14:43 | 49.71226 | 10.86156 | 37401 ft | 420 kts | 339° |
| 2026-04-30 14:43 | 49.73825 | 10.84155 | 37780 ft | 419 kts | 339° |
| 2026-04-30 14:43 | 49.76389 | 10.82026 | 38144 ft | 421 kts | 334° |
| 2026-04-30 14:43 | 49.78896 | 10.79651 | 38364 ft | 421 kts | 334° |
| 2026-04-30 14:44 | 49.83844 | 10.74950 | 38395 ft | 419 kts | 334° |
| 2026-04-30 14:44 | 49.88814 | 10.70221 | 38394 ft | 419 kts | 333° |
| 2026-04-30 14:45 | 49.93765 | 10.65490 | 38393 ft | 419 kts | 333° |
| 2026-04-30 14:45 | 49.98738 | 10.60727 | 38404 ft | 419 kts | 333° |
| 2026-04-30 14:46 | 50.03689 | 10.55974 | 38401 ft | 419 kts | 333° |
| 2026-04-30 14:46 | 50.07826 | 10.51994 | 38401 ft | 420 kts | 333° |
| 2026-04-30 14:47 | 50.13605 | 10.46410 | 38407 ft | 420 kts | 333° |
| 2026-04-30 14:47 | 50.18607 | 10.41571 | 38406 ft | 420 kts | 333° |
| 2026-04-30 14:48 | 50.23554 | 10.36772 | 38409 ft | 421 kts | 333° |
| 2026-04-30 14:48 | 50.28525 | 10.31930 | 38406 ft | 422 kts | 330° |
| 2026-04-30 14:49 | 50.30742 | 10.28848 | 38409 ft | 432 kts | 315° |
| 2026-04-30 14:49 | 50.32440 | 10.24921 | 38410 ft | 439 kts | 306° |
| 2026-04-30 14:49 | 50.35502 | 10.16631 | 38401 ft | 440 kts | 304° |
| 2026-04-30 14:50 | 50.40004 | 10.04046 | 38406 ft | 441 kts | 304° |
| 2026-04-30 14:51 | 50.44524 | 9.91451 | 38410 ft | 442 kts | 304° |
| 2026-04-30 14:52 | 50.49046 | 9.78821 | 38404 ft | 443 kts | 304° |
| 2026-04-30 14:52 | 50.53539 | 9.66193 | 38406 ft | 443 kts | 304° |
| 2026-04-30 14:53 | 50.58041 | 9.53479 | 38404 ft | 444 kts | 304° |
| 2026-04-30 14:54 | 50.63350 | 9.35887 | 38398 ft | 450 kts | 292° |
| 2026-04-30 14:55 | 50.66281 | 9.21793 | 38402 ft | 451 kts | 292° |
| 2026-04-30 14:56 | 50.70163 | 9.02953 | 38409 ft | 452 kts | 292° |
| 2026-04-30 14:57 | 50.73065 | 8.88789 | 38405 ft | 453 kts | 291° |
| 2026-04-30 14:58 | 50.76586 | 8.71438 | 38401 ft | 453 kts | 291° |
| 2026-04-30 14:58 | 50.79462 | 8.57186 | 38395 ft | 454 kts | 291° |
| 2026-04-30 15:00 | 50.84210 | 8.33388 | 38378 ft | 454 kts | 290° |
| 2026-04-30 15:01 | 50.87966 | 8.14313 | 38380 ft | 454 kts | 290° |
| 2026-04-30 15:01 | 50.90753 | 8.00036 | 38362 ft | 454 kts | 290° |
| 2026-04-30 15:02 | 50.92616 | 7.90465 | 38370 ft | 455 kts | 290° |
| 2026-04-30 15:03 | 50.97236 | 7.66492 | 38369 ft | 455 kts | 289° |
| 2026-04-30 15:04 | 51.01818 | 7.42426 | 38363 ft | 455 kts | 289° |
| 2026-04-30 15:06 | 51.06356 | 7.18293 | 38356 ft | 456 kts | 289° |
| 2026-04-30 15:07 | 51.09945 | 6.98916 | 38338 ft | 456 kts | 288° |
| 2026-04-30 15:08 | 51.13514 | 6.79503 | 38330 ft | 457 kts | 288° |
| 2026-04-30 15:09 | 51.17931 | 6.55180 | 38337 ft | 457 kts | 288° |
| 2026-04-30 15:10 | 51.21400 | 6.35782 | 38339 ft | 456 kts | 287° |
| 2026-04-30 15:11 | 51.26586 | 6.06491 | 38340 ft | 456 kts | 287° |
| 2026-04-30 15:13 | 51.30842 | 5.82047 | 38315 ft | 457 kts | 287° |
| 2026-04-30 15:14 | 51.36724 | 5.47732 | 38298 ft | 459 kts | 286° |
| 2026-04-30 15:17 | 51.44191 | 5.03236 | 38304 ft | 460 kts | 285° |
| 2026-04-30 15:19 | 51.50678 | 4.63489 | 38298 ft | 461 kts | 284° |